Time;durP1;ratioP1;P1;durP2;ratioP2;P2;SDS_P1;SDS_P2;PMS_P1;PMS_P2;Temp;Humidity;BMP_temperature;BMP_pressure;BME280_temperature;BME280_humidity;BME280_pressure;Samples;Min_cycle;Max_cycle;Signal;HPM_P1;HPM_P2
2022/07/12 00:01:42;;;;;;;1.42;0.52;;;;;;;26.75;42.83;101101.56;4923441;29;20063;-78
2022/07/12 00:04:27;;;;;;;2.28;0.77;;;;;;;26.80;42.83;101103.09;4933353;29;20050;-79
2022/07/12 00:07:12;;;;;;;5.30;0.90;;;;;;;26.80;42.46;101101.09;4926871;29;20305;-79
2022/07/12 00:09:57;;;;;;;3.10;0.60;;;;;;;26.78;42.82;101100.72;4921690;29;20410;-79
2022/07/12 00:12:42;;;;;;;4.80;0.80;;;;;;;26.87;42.67;101097.44;4922771;29;20051;-78
2022/07/12 00:15:26;;;;;;;5.03;0.70;;;;;;;26.85;42.79;101097.06;4922920;29;20059;-78
2022/07/12 00:18:12;;;;;;;1.95;0.70;;;;;;;26.76;42.68;101091.19;4922158;29;20345;-78
2022/07/12 00:20:56;;;;;;;3.00;0.57;;;;;;;26.74;42.90;101083.22;4921570;29;20509;-79
2022/07/12 00:23:41;;;;;;;1.98;0.80;;;;;;;26.79;42.73;101093.94;4921700;29;20051;-78
2022/07/12 00:26:26;;;;;;;3.17;1.00;;;;;;;26.72;42.43;101098.78;4921417;29;22567;-79
2022/07/12 00:29:12;;;;;;;2.95;0.82;;;;;;;26.72;42.92;101093.22;4931661;29;20092;-78
2022/07/12 00:31:56;;;;;;;6.05;0.88;;;;;;;26.69;42.80;101092.06;4924177;29;20042;-78
2022/07/12 00:34:42;;;;;;;3.25;0.80;;;;;;;26.74;42.71;101093.59;4926888;29;20051;-78
2022/07/12 00:37:26;;;;;;;6.53;0.90;;;;;;;26.73;43.15;101092.00;4938077;29;20064;-78
2022/07/12 00:40:12;;;;;;;1.27;1.02;;;;;;;26.78;43.03;101094.34;4921753;29;20051;-79
2022/07/12 00:42:56;;;;;;;3.42;0.75;;;;;;;26.66;41.68;101092.09;4921432;29;20422;-78
2022/07/12 00:45:41;;;;;;;1.52;0.63;;;;;;;26.67;42.04;101097.25;4921990;29;20051;-79
2022/07/12 00:48:27;;;;;;;4.00;0.80;;;;;;;26.67;41.81;101099.25;4922711;29;20067;-77
2022/07/12 00:51:11;;;;;;;3.67;0.68;;;;;;;26.74;42.63;101091.59;4929285;29;20051;-80
2022/07/12 00:53:58;;;;;;;3.47;0.60;;;;;;;26.74;42.55;101090.81;4935654;29;20422;-80
2022/07/12 00:56:43;;;;;;;2.88;0.85;;;;;;;26.74;42.52;101088.81;4905777;29;20052;-81
2022/07/12 00:59:28;;;;;;;2.35;0.60;;;;;;;26.78;42.15;101094.34;4926914;29;20046;-80
2022/07/12 01:02:13;;;;;;;1.23;0.75;;;;;;;26.71;40.88;101095.25;4922203;29;20055;-80
2022/07/12 01:04:58;;;;;;;1.17;0.45;;;;;;;26.69;41.33;101094.06;4923265;29;20449;-78
2022/07/12 01:07:44;;;;;;;2.20;0.60;;;;;;;26.72;41.79;101093.22;4923195;29;20133;-77
2022/07/12 01:10:31;;;;;;;3.40;0.88;;;;;;;26.74;41.56;101091.59;4922925;29;20050;-76
2022/07/12 01:13:17;;;;;;;1.58;0.70;;;;;;;26.74;41.75;101099.19;4924379;29;20047;-80
2022/07/12 01:16:02;;;;;;;1.75;0.68;;;;;;;26.75;41.16;101097.97;4922449;29;20055;-78
2022/07/12 01:18:47;;;;;;;1.58;0.50;;;;;;;26.74;41.26;101097.19;4930755;29;20071;-79
2022/07/12 01:21:37;;;;;;;1.15;0.60;;;;;;;26.74;41.05;101105.56;4933415;29;20051;-80
2022/07/12 01:24:21;;;;;;;1.98;0.50;;;;;;;26.68;40.83;101096.06;4918356;29;20227;-80
2022/07/12 01:27:07;;;;;;;3.08;0.73;;;;;;;26.68;41.12;101092.47;4918701;29;20413;-80
2022/07/12 01:29:52;;;;;;;2.67;0.63;;;;;;;26.61;40.57;101096.16;4922382;29;20484;-79
2022/07/12 01:32:38;;;;;;;1.10;0.60;;;;;;;26.56;41.23;101093.03;4910592;29;20047;-77
2022/07/12 01:35:24;;;;;;;2.70;0.70;;;;;;;26.58;40.87;101096.97;4932915;29;20528;-78
2022/07/12 01:38:09;;;;;;;2.28;0.28;;;;;;;26.51;40.59;101091.47;4920193;29;20051;-80
2022/07/12 01:40:55;;;;;;;5.30;0.90;;;;;;;26.54;40.26;101096.22;4931905;29;20055;-79
2022/07/12 01:43:39;;;;;;;0.90;0.43;;;;;;;26.62;41.28;101092.13;4922191;29;20047;-78
2022/07/12 01:46:24;;;;;;;2.40;0.57;;;;;;;26.53;39.78;101093.84;4917512;29;20047;-79
2022/07/12 01:49:09;;;;;;;1.45;0.50;;;;;;;26.47;39.71;101087.91;4917186;29;20059;-79
2022/07/12 01:51:57;;;;;;;;;;;;;;;26.50;40.85;101089.09;4932946;29;20055;-78
2022/07/12 01:54:42;;;;;;;2.30;0.95;;;;;;;26.60;41.06;101088.19;4920719;29;19915;-78
2022/07/12 01:57:27;;;;;;;2.92;0.70;;;;;;;26.53;40.28;101093.84;4948076;28;20051;-77
2022/07/12 02:00:13;;;;;;;7.10;0.73;;;;;;;26.49;40.98;101081.94;4925571;29;20063;-80
2022/07/12 02:02:58;;;;;;;3.22;0.93;;;;;;;26.49;40.99;101081.94;4919108;29;20406;-81
2022/07/12 02:05:43;;;;;;;2.65;0.60;;;;;;;26.58;41.33;101090.59;4926506;29;20068;-79
2022/07/12 02:08:28;;;;;;;1.45;0.50;;;;;;;26.61;40.38;101087.78;4898378;29;20051;-78
2022/07/12 02:11:13;;;;;;;2.10;0.70;;;;;;;26.62;41.00;101088.53;4930344;29;20427;-80
2022/07/12 02:13:58;;;;;;;0.90;0.50;;;;;;;26.63;40.78;101095.72;4924588;29;20039;-77
2022/07/12 02:16:43;;;;;;;1.55;0.38;;;;;;;26.32;40.82;101095.63;4931200;29;20055;-79
2022/07/12 02:19:27;;;;;;;1.73;0.60;;;;;;;26.53;41.00;101099.41;4925609;29;20055;-79
2022/07/12 02:22:12;;;;;;;1.33;0.45;;;;;;;26.50;40.74;101103.03;4924215;29;20063;-78
2022/07/12 02:24:57;;;;;;;;;;;;;;;26.55;41.27;101105.38;4917280;29;20064;-78
2022/07/12 02:27:41;;;;;;;2.60;0.80;;;;;;;26.50;41.57;101101.03;4917252;29;20324;-79
2022/07/12 02:30:26;;;;;;;2.30;0.70;;;;;;;26.58;41.43;101098.97;4918885;29;20071;-80
2022/07/12 02:33:11;;;;;;;2.25;0.65;;;;;;;26.65;41.27;101099.69;4916776;29;20043;-78
2022/07/12 02:35:55;;;;;;;;;;;;;;;26.55;41.65;101108.16;4922704;29;20055;-78
2022/07/12 02:38:39;;;;;;;3.55;1.30;;;;;;;26.58;41.71;101107.31;4933191;28;19914;-81
2022/07/12 02:41:24;;;;;;;2.00;0.57;;;;;;;26.67;41.76;101105.63;4916577;29;20055;-78
2022/07/12 02:44:09;;;;;;;2.67;1.02;;;;;;;26.64;41.70;101102.88;4908782;29;20320;-79
2022/07/12 02:46:54;;;;;;;9.93;0.98;;;;;;;26.65;42.10;101105.25;4927065;29;20043;-77
2022/07/12 02:49:39;;;;;;;;;;;;;;;26.77;41.80;101098.34;4910907;29;20059;-80
2022/07/12 02:52:24;;;;;;;5.22;0.90;;;;;;;26.36;43.19;101104.75;4916094;29;19915;-78
2022/07/12 02:55:08;;;;;;;7.18;1.58;;;;;;;26.30;43.49;101103.63;4900019;29;20070;-75
2022/07/12 02:57:53;;;;;;;3.10;0.82;;;;;;;26.25;43.69;101106.88;4935425;28;20055;-76
2022/07/12 03:00:38;;;;;;;3.70;0.70;;;;;;;26.24;43.39;101098.91;4926125;29;20413;-77
2022/07/12 03:03:23;;;;;;;2.90;1.00;;;;;;;25.99;44.39;101101.91;4920079;29;20071;-76
2022/07/12 03:06:08;;;;;;;3.47;0.80;;;;;;;25.99;44.17;101099.09;4916387;29;20122;-77
2022/07/12 03:08:52;;;;;;;;;;;;;;;25.89;44.65;101100.78;4916866;29;20056;-77
2022/07/12 03:11:37;;;;;;;4.53;1.05;;;;;;;25.90;44.68;101101.59;4915707;29;19915;-76
2022/07/12 03:14:21;;;;;;;;;;;;;;;25.98;44.62;101105.88;4913812;29;20047;-76
2022/07/12 03:17:05;;;;;;;170.60;31.35;;;;;;;25.92;44.77;101118.66;4915722;29;19919;-74
2022/07/12 03:19:50;;;;;;;;;;;;;;;25.87;44.96;101108.75;4934307;29;20040;-74
2022/07/12 03:22:34;;;;;;;85.60;19.20;;;;;;;25.90;44.85;101112.72;4918369;29;19919;-76
2022/07/12 03:25:21;;;;;;;36.10;7.28;;;;;;;25.80;44.90;101119.19;4916440;29;20040;-76
2022/07/12 03:28:06;;;;;;;39.65;5.68;;;;;;;25.81;45.11;101104.00;4919679;29;20048;-78
2022/07/12 03:30:50;;;;;;;;;;;;;;;25.77;45.03;101115.19;4916355;29;20052;-78
2022/07/12 03:33:36;;;;;;;6.90;2.10;;;;;;;25.70;45.34;101114.47;4917053;29;19915;-78
2022/07/12 03:36:20;;;;;;;11.13;2.08;;;;;;;25.60;45.84;101126.47;4934631;29;20520;-78
2022/07/12 03:39:05;;;;;;;;;;;;;;;25.62;45.77;101118.50;4919089;29;20212;-77
2022/07/12 03:41:49;;;;;;;8.67;1.50;;;;;;;25.64;45.80;101116.91;4915845;29;19914;-78
2022/07/12 03:44:34;;;;;;;2.17;0.85;;;;;;;25.71;45.71;101116.03;4912411;29;20129;-76
2022/07/12 03:47:21;;;;;;;6.20;1.27;;;;;;;25.74;45.59;101118.03;4918311;29;20047;-78
2022/07/12 03:50:08;;;;;;;6.95;0.80;;;;;;;25.85;45.23;101124.31;4918736;29;20051;-75
2022/07/12 03:52:53;;;;;;;1.63;1.10;;;;;;;25.79;45.56;101125.94;4910921;29;20410;-79
2022/07/12 03:55:37;;;;;;;2.88;0.73;;;;;;;25.69;45.54;101124.81;4927327;29;20529;-80
2022/07/12 03:58:22;;;;;;;4.07;0.98;;;;;;;25.74;45.38;101124.38;4917191;29;20051;-79
2022/07/12 04:01:07;;;;;;;;;;;;;;;25.82;45.24;101127.91;4915914;29;20051;-77
2022/07/12 04:03:51;;;;;;;4.05;1.00;;;;;;;25.65;45.66;101128.84;4921989;29;19914;-78
2022/07/12 04:06:36;;;;;;;;;;;;;;;25.66;45.28;101130.41;4918000;29;20055;-78
2022/07/12 04:09:20;;;;;;;3.50;0.73;;;;;;;25.78;45.29;101138.28;4929499;29;19915;-77
2022/07/12 04:12:06;;;;;;;1.10;1.00;;;;;;;25.71;45.57;101135.53;4935947;23;20068;-80
2022/07/12 04:14:50;;;;;;;3.30;1.17;;;;;;;25.70;45.56;101139.53;4898868;29;20048;-80
2022/07/12 04:17:35;;;;;;;;;;;;;;;25.74;45.30;101141.09;4887379;29;20065;-80
2022/07/12 04:20:19;;;;;;;2.70;0.77;;;;;;;25.95;44.97;101140.16;4892272;29;19919;-80
2022/07/12 04:23:04;;;;;;;3.60;0.80;;;;;;;25.98;44.67;101137.34;4897168;29;20056;-80
2022/07/12 04:25:48;;;;;;;;;;;;;;;26.06;44.60;101146.41;4900311;29;20061;-80
2022/07/12 04:28:35;;;;;;;2.50;0.63;;;;;;;26.11;44.60;101142.44;4890461;29;19970;-81
2022/07/12 04:31:20;;;;;;;2.30;0.80;;;;;;;25.98;44.67;101145.69;4885320;29;20135;-80
2022/07/12 04:34:05;;;;;;;1.50;0.63;;;;;;;26.06;44.20;101146.41;4885823;29;20056;-80
2022/07/12 04:36:50;;;;;;;2.45;0.70;;;;;;;25.93;44.44;101135.00;4897241;29;20073;-80
2022/07/12 04:39:35;;;;;;;5.68;0.90;;;;;;;25.95;44.60;101148.53;4887001;29;20052;-80
2022/07/12 04:42:20;;;;;;;3.97;0.90;;;;;;;25.90;44.88;101143.38;4888490;29;20132;-80
2022/07/12 04:45:05;;;;;;;3.33;0.60;;;;;;;25.91;44.57;101140.16;4883881;29;20052;-79
2022/07/12 04:47:51;;;;;;;6.22;0.80;;;;;;;25.84;44.63;101143.03;4891736;29;20052;-80
2022/07/12 04:50:35;;;;;;;9.20;0.75;;;;;;;25.88;44.80;101135.44;4893051;29;20402;-80
2022/07/12 04:53:21;;;;;;;7.38;1.50;;;;;;;25.98;44.86;101136.53;4888784;29;20056;-80
2022/07/12 04:56:06;;;;;;;3.97;0.65;;;;;;;26.09;44.84;101136.47;4891507;29;20052;-81
2022/07/12 04:58:51;;;;;;;8.88;1.20;;;;;;;26.47;44.04;101146.50;4887420;29;20052;-81
2022/07/12 05:01:36;;;;;;;5.90;1.15;;;;;;;26.53;43.67;101144.84;4899014;29;20052;-79
2022/07/12 05:04:20;;;;;;;;;;;;;;;26.63;43.58;101152.31;4880852;29;20419;-80
2022/07/12 05:07:05;;;;;;;3.17;0.70;;;;;;;26.62;43.80;101156.31;4889173;29;19916;-82
2022/07/12 05:09:51;;;;;;;5.97;0.95;;;;;;;26.37;44.07;101142.59;4897687;29;20057;-82
2022/07/12 05:12:36;;;;;;;3.90;1.30;;;;;;;26.34;44.06;101151.00;4878827;29;20442;-81
2022/07/12 05:15:21;;;;;;;5.93;0.95;;;;;;;26.35;44.35;101150.59;4900548;29;20418;-80
2022/07/12 05:18:05;;;;;;;5.85;1.40;;;;;;;26.23;44.55;101148.31;4893275;29;20057;-80
2022/07/12 05:20:50;;;;;;;;;;;;;;;26.27;44.67;101151.06;4885087;29;20064;-79
2022/07/12 05:23:36;;;;;;;5.27;0.90;;;;;;;26.23;45.07;101153.09;4883930;29;20943;-80
2022/07/12 05:26:22;;;;;;;10.93;1.10;;;;;;;26.44;44.47;101152.91;4891659;29;20296;-80
2022/07/12 05:29:08;;;;;;;5.68;0.82;;;;;;;26.58;43.77;101154.75;4890586;29;20538;-81
2022/07/12 05:31:57;;;;;;;12.70;1.30;;;;;;;26.60;44.01;101163.50;4891343;29;20048;-81
2022/07/12 05:34:41;;;;;;;4.15;0.80;;;;;;;26.67;43.97;101160.63;4895130;29;20279;-81
2022/07/12 05:37:26;;;;;;;13.77;0.98;;;;;;;26.72;43.83;101162.97;4902543;29;20059;-79
2022/07/12 05:40:11;;;;;;;5.28;0.90;;;;;;;26.71;44.05;101167.00;4883073;29;20649;-78
2022/07/12 05:42:56;;;;;;;10.30;1.15;;;;;;;26.73;43.81;101176.53;4902488;29;20051;-78
2022/07/12 05:45:42;;;;;;;5.43;1.13;;;;;;;26.62;44.54;101180.63;4889978;29;20041;-78
2022/07/12 05:48:27;;;;;;;3.80;0.60;;;;;;;26.54;44.43;101181.91;4887080;29;20052;-79
2022/07/12 05:54:32;;;;;;;7.07;1.15;;;;;;;26.49;44.90;101177.56;4891160;29;20052;-79
2022/07/12 05:57:18;;;;;;;10.07;1.10;;;;;;;26.48;44.64;101186.34;4883495;29;20056;-78
2022/07/12 06:00:04;;;;;;;7.10;1.65;;;;;;;26.51;44.83;101186.31;4894213;29;20654;-80
2022/07/12 06:02:49;;;;;;;8.60;1.10;;;;;;;26.47;44.78;101187.53;4887777;29;20044;-77
2022/07/12 06:05:33;;;;;;;;;;;;;;;26.37;45.22;101189.22;4884216;29;20052;-78
2022/07/12 06:08:18;;;;;;;3.63;0.60;;;;;;;26.36;45.36;101194.00;4899071;29;19915;-78
2022/07/12 06:11:03;;;;;;;3.97;1.35;;;;;;;26.27;45.91;101201.25;4887667;29;20500;-78
2022/07/12 06:13:49;;;;;;;3.05;0.63;;;;;;;26.27;45.99;101206.84;4885704;29;20521;-78
2022/07/12 06:16:33;;;;;;;2.85;1.05;;;;;;;26.41;45.98;101208.72;4875452;29;20056;-78
2022/07/12 06:19:18;;;;;;;6.30;0.73;;;;;;;26.20;46.19;101204.88;4898171;29;20048;-77
2022/07/12 06:22:03;;;;;;;1.70;0.95;;;;;;;26.30;45.81;101204.03;4882518;29;20108;-78
2022/07/12 06:24:47;;;;;;;6.10;0.65;;;;;;;26.36;45.87;101199.56;4883054;29;20048;-77
2022/07/12 06:27:32;;;;;;;2.45;1.05;;;;;;;26.31;46.49;101202.81;4904757;29;20055;-77
2022/07/12 06:30:18;;;;;;;;;;;;;;;26.33;46.20;101214.34;4896993;29;20466;-78
2022/07/12 06:33:02;;;;;;;8.57;0.80;;;;;;;26.50;46.19;101217.41;4904251;29;19915;-78
2022/07/12 06:35:47;;;;;;;6.45;0.75;;;;;;;26.34;46.45;101218.75;4881103;29;20048;-78
2022/07/12 06:38:32;;;;;;;4.00;1.05;;;;;;;26.04;47.33;101218.53;4883539;29;20056;-76
2022/07/12 06:41:16;;;;;;;1.70;0.80;;;;;;;26.02;47.27;101223.72;4866226;29;20053;-76
2022/07/12 06:44:01;;;;;;;4.32;0.90;;;;;;;26.29;46.77;101223.97;4884730;29;20067;-77
2022/07/12 06:46:46;;;;;;;2.50;0.70;;;;;;;26.29;46.73;101224.75;4867498;29;20063;-76
2022/07/12 06:49:31;;;;;;;4.63;0.60;;;;;;;26.32;46.72;101229.50;4878520;29;20052;-76
2022/07/12 06:52:16;;;;;;;4.85;1.08;;;;;;;26.42;46.50;101233.41;4880328;29;20060;-77
2022/07/12 06:55:00;;;;;;;0.43;0.43;;;;;;;26.59;46.34;101243.63;4875341;29;20525;-78
2022/07/12 06:57:45;;;;;;;2.78;1.25;;;;;;;26.74;45.96;101247.88;4878319;29;20067;-78
2022/07/12 07:00:30;;;;;;;3.80;1.08;;;;;;;26.77;46.04;101249.03;4867868;29;20055;-77
2022/07/12 07:03:15;;;;;;;5.68;1.20;;;;;;;26.79;45.68;101250.22;4879794;29;20422;-78
2022/07/12 07:06:00;;;;;;;12.80;1.15;;;;;;;26.81;46.00;101253.41;4875513;29;20051;-78
2022/07/12 07:08:45;;;;;;;4.03;0.95;;;;;;;26.52;46.29;101249.25;4876057;29;20045;-78
2022/07/12 07:11:29;;;;;;;2.47;1.15;;;;;;;26.64;46.38;101247.97;4879447;29;20051;-77
2022/07/12 07:14:13;;;;;;;;;;;;;;;26.53;46.25;101250.06;4895125;29;20052;-77
2022/07/12 07:16:58;;;;;;;2.15;0.80;;;;;;;26.44;46.52;101247.75;4881460;29;19916;-77
2022/07/12 07:19:44;;;;;;;3.60;0.75;;;;;;;26.67;46.00;101259.09;4880927;29;20048;-78
2022/07/12 07:22:28;;;;;;;3.53;1.02;;;;;;;26.57;46.54;101257.19;4879740;29;20067;-77
2022/07/12 07:25:12;;;;;;;;;;;;;;;26.66;46.56;101265.91;4894574;29;20707;-77
2022/07/12 07:27:57;;;;;;;8.20;0.97;;;;;;;26.73;45.78;101263.03;4881643;29;19916;-78
2022/07/12 07:30:53;;;;;;;;;;;;;;;26.89;45.74;101265.31;4879222;29;20518;-77
2022/07/12 07:33:38;;;;;;;1.88;0.77;;;;;;;26.91;45.39;101265.69;4879664;29;20389;-77
2022/07/12 07:36:22;;;;;;;7.65;1.10;;;;;;;27.00;45.93;101256.84;4888129;29;20502;-77
2022/07/12 07:39:07;;;;;;;;;;;;;;;27.01;45.32;101253.63;4878719;29;20056;-78
2022/07/12 07:41:51;;;;;;;3.58;0.90;;;;;;;27.22;45.68;101253.41;4876731;29;19915;-75
2022/07/12 07:44:36;;;;;;;5.80;0.70;;;;;;;27.22;44.96;101261.00;4869340;29;20056;-76
2022/07/12 07:47:21;;;;;;;5.68;0.80;;;;;;;27.29;44.93;101265.69;4892411;29;20055;-77
2022/07/12 07:50:06;;;;;;;2.78;0.70;;;;;;;27.28;45.04;101264.13;4884302;29;20060;-76
2022/07/12 07:52:51;;;;;;;2.10;0.55;;;;;;;27.35;44.30;101267.63;4879081;29;20044;-76
2022/07/12 07:55:36;;;;;;;3.28;0.98;;;;;;;27.40;44.62;101261.56;4879371;29;20530;-76
2022/07/12 07:58:21;;;;;;;3.83;0.63;;;;;;;27.31;44.91;101252.91;4881486;29;20076;-75
2022/07/12 08:01:05;;;;;;;10.63;1.05;;;;;;;27.11;44.09;101249.16;4877639;29;20795;-75
2022/07/12 08:03:50;;;;;;;1.08;0.68;;;;;;;27.82;42.74;101257.50;4877710;29;20513;-76
2022/07/12 08:06:35;;;;;;;3.08;0.73;;;;;;;29.02;40.24;101248.41;4878025;29;20060;-77
2022/07/12 08:09:20;;;;;;;1.40;0.80;;;;;;;28.19;41.96;101239.78;4890271;29;20052;-77
2022/07/12 08:12:05;;;;;;;3.35;0.82;;;;;;;28.49;41.51;101236.13;4887411;29;20083;-77
2022/07/12 08:14:49;;;;;;;6.47;1.00;;;;;;;27.74;42.48;101236.41;4899980;29;20048;-78
2022/07/12 08:17:33;;;;;;;;;;;;;;;27.56;42.86;101247.84;4873848;29;20051;-76
2022/07/12 08:20:18;;;;;;;2.17;0.47;;;;;;;27.91;40.71;101245.78;4882433;29;19915;-77
2022/07/12 08:23:03;;;;;;;8.38;0.68;;;;;;;27.92;40.98;101245.38;4887276;29;20127;-75
2022/07/12 08:25:47;;;;;;;3.05;0.57;;;;;;;27.91;40.91;101254.97;4888696;29;20048;-76
2022/07/12 08:28:32;;;;;;;4.45;0.80;;;;;;;27.97;41.50;101249.69;4875708;29;20048;-76
2022/07/12 08:31:16;;;;;;;5.13;1.13;;;;;;;28.04;41.23;101253.16;4886522;29;20142;-77
2022/07/12 08:34:01;;;;;;;2.53;1.05;;;;;;;28.20;40.71;101248.97;4895409;29;20533;-76
2022/07/12 08:36:45;;;;;;;2.47;0.80;;;;;;;28.03;39.98;101251.59;4875898;29;20052;-77
2022/07/12 08:39:30;;;;;;;5.15;0.80;;;;;;;28.20;39.56;101244.16;4874185;29;20055;-76
2022/07/12 08:42:16;;;;;;;1.05;0.50;;;;;;;28.25;37.76;101246.47;4880909;29;20059;-76
2022/07/12 08:45:02;;;;;;;6.15;0.77;;;;;;;28.40;38.18;101258.25;4898223;29;20048;-76
2022/07/12 08:47:46;;;;;;;4.75;0.77;;;;;;;28.63;37.35;101254.69;4896530;29;20056;-76
2022/07/12 08:50:31;;;;;;;1.88;0.60;;;;;;;28.73;37.01;101256.53;4880741;29;20418;-76
2022/07/12 08:53:15;;;;;;;4.82;0.55;;;;;;;28.68;35.79;101263.38;4892693;29;20052;-76
2022/07/12 08:56:02;;;;;;;5.65;0.75;;;;;;;28.77;37.32;101260.84;4885403;29;20040;-75
2022/07/12 08:59:17;;;;;;;2.60;1.08;;;;;;;28.90;36.52;101263.84;4885670;29;20051;-75
2022/07/12 09:02:01;;;;;;;5.30;1.13;;;;;;;28.78;35.86;101256.84;4878807;29;20044;-76
2022/07/12 09:04:46;;;;;;;0.57;0.43;;;;;;;28.88;36.72;101261.44;4881735;29;20052;-76
2022/07/12 09:07:36;;;;;;;1.40;0.60;;;;;;;28.91;37.91;101254.19;4880602;29;20624;-76
2022/07/12 09:10:21;;;;;;;3.40;0.98;;;;;;;28.96;38.66;101259.28;4897790;29;20541;-76
2022/07/12 09:13:05;;;;;;;5.68;0.95;;;;;;;28.90;36.75;101253.41;4895631;29;20055;-76
2022/07/12 09:15:50;;;;;;;1.98;0.63;;;;;;;29.01;37.20;101258.00;4887757;29;20048;-76
2022/07/12 09:18:35;;;;;;;1.55;0.70;;;;;;;29.00;37.24;101259.25;4901094;29;20056;-76
2022/07/12 09:21:29;;;;;;;1.10;0.68;;;;;;;28.97;36.33;101268.50;4879069;29;20052;-76
2022/07/12 09:24:14;;;;;;;2.38;0.57;;;;;;;28.89;37.17;101271.44;4893036;29;20235;-76
2022/07/12 09:27:03;;;;;;;3.72;0.82;;;;;;;28.94;37.11;101263.75;4887243;29;20514;-76
2022/07/12 09:29:50;;;;;;;4.72;1.15;;;;;;;28.90;37.76;101250.59;4894739;29;20518;-76
2022/07/12 09:36:06;;;;;;;2.28;0.63;;;;;;;29.08;35.53;101255.09;4879084;29;20044;-76
2022/07/12 09:39:00;;;;;;;3.88;1.00;;;;;;;29.15;35.94;101260.56;4883270;29;20411;-76
2022/07/12 09:41:46;;;;;;;;;;;;;;;29.26;35.18;101255.53;4888021;29;20533;-77
2022/07/12 09:44:30;;;;;;;1.35;0.45;;;;;;;29.32;35.43;101254.63;4868823;29;19916;-76
2022/07/12 09:47:18;;;;;;;4.15;0.95;;;;;;;29.49;35.28;101246.28;4873829;29;20072;-77
2022/07/12 09:50:04;;;;;;;2.15;0.88;;;;;;;29.54;34.52;101249.38;4884780;29;20418;-76
2022/07/12 09:52:48;;;;;;;2.88;0.73;;;;;;;29.56;36.57;101238.50;4896422;29;20542;-76
2022/07/12 09:55:36;;;;;;;2.38;1.08;;;;;;;29.14;36.60;101240.16;4889248;29;20057;-76
2022/07/12 09:58:35;;;;;;;1.67;0.80;;;;;;;29.41;37.54;101242.84;4880839;29;20064;-76
2022/07/12 10:01:20;;;;;;;1.85;0.88;;;;;;;29.54;36.12;101240.19;4896061;29;20051;-76
2022/07/12 10:04:06;;;;;;;1.75;0.65;;;;;;;29.68;35.97;101240.66;4882360;29;20056;-76
2022/07/12 10:06:51;;;;;;;1.92;0.70;;;;;;;29.67;36.38;101239.06;4878902;29;20044;-76
2022/07/12 10:09:37;;;;;;;3.33;0.98;;;;;;;29.90;36.73;101251.44;4879717;29;20422;-76
2022/07/12 10:12:23;;;;;;;3.42;0.60;;;;;;;29.79;37.74;101240.44;4946997;23;20547;-78
2022/07/12 10:15:15;;;;;;;7.38;0.80;;;;;;;29.62;37.80;101244.41;4939235;29;20050;-77
2022/07/12 10:18:00;;;;;;;3.72;0.80;;;;;;;29.62;37.77;101248.00;4946609;29;20042;-77
2022/07/12 10:20:47;;;;;;;2.03;0.77;;;;;;;29.74;36.00;101238.94;4953384;28;20054;-77
2022/07/12 10:23:36;;;;;;;1.77;0.73;;;;;;;29.64;37.65;101234.34;4949556;28;20102;-77
2022/07/12 10:26:37;;;;;;;2.90;0.60;;;;;;;29.66;36.02;101240.28;4938304;28;20054;-79
2022/07/12 10:29:22;;;;;;;1.70;0.65;;;;;;;29.76;36.42;101242.06;4946607;28;20046;-76
2022/07/12 10:32:34;;;;;;;5.05;0.75;;;;;;;29.86;37.35;101229.06;4962723;28;20417;-78
2022/07/12 10:35:22;;;;;;;9.85;0.77;;;;;;;29.74;36.91;101232.53;4951060;29;20416;-77
2022/07/12 10:38:16;;;;;;;1.80;0.68;;;;;;;30.03;36.04;101221.47;4957683;28;20050;-79
2022/07/12 10:41:24;;;;;;;1.67;0.98;;;;;;;30.12;37.02;101227.31;4953673;28;20555;-79
2022/07/12 10:44:09;;;;;;;1.05;0.70;;;;;;;30.07;36.35;101225.00;4967206;28;20050;-79
2022/07/12 10:47:02;;;;;;;3.60;1.55;;;;;;;30.25;35.14;101216.16;4947868;28;20050;-78
2022/07/12 10:49:49;;;;;;;3.55;0.90;;;;;;;30.32;35.15;101211.16;4939087;28;20625;-79
2022/07/12 10:52:34;;;;;;;4.30;0.88;;;;;;;30.38;35.45;101209.38;4950652;28;20341;-79
2022/07/12 10:55:19;;;;;;;3.85;0.70;;;;;;;30.39;37.03;101205.34;4948479;28;20058;-80
2022/07/12 10:58:03;;;;;;;5.13;1.20;;;;;;;30.27;38.18;101200.47;4950601;29;20050;-79
2022/07/12 11:00:50;;;;;;;5.00;1.08;;;;;;;29.92;38.40;101193.69;4943340;28;20051;-79
2022/07/12 11:03:40;;;;;;;4.00;0.98;;;;;;;29.94;37.97;101196.06;4944324;28;20058;-78
2022/07/12 11:06:26;;;;;;;3.97;0.90;;;;;;;29.94;38.15;101190.44;4946101;29;20058;-79
2022/07/12 11:09:15;;;;;;;3.63;1.13;;;;;;;29.97;37.98;101189.59;4947593;28;20074;-78
2022/07/12 11:12:01;;;;;;;2.13;0.77;;;;;;;30.00;37.26;101185.91;4950836;28;20050;-78
2022/07/12 11:14:46;;;;;;;1.55;0.73;;;;;;;29.96;38.09;101188.00;4946335;28;20536;-78
2022/07/12 11:17:32;;;;;;;3.90;0.88;;;;;;;30.10;36.33;101182.84;4950602;28;20440;-77
2022/07/12 11:20:17;;;;;;;5.68;0.90;;;;;;;30.30;36.50;101191.16;4961572;28;20058;-79
2022/07/12 11:23:02;;;;;;;4.05;0.82;;;;;;;30.34;36.49;101177.81;4947341;28;20054;-79
2022/07/12 11:25:47;;;;;;;5.28;1.38;;;;;;;30.43;36.21;101186.41;4949871;29;20048;-79
2022/07/12 11:28:33;;;;;;;1.58;0.82;;;;;;;30.64;35.28;101182.28;4947700;28;20050;-80
2022/07/12 11:31:19;;;;;;;4.95;0.70;;;;;;;30.80;35.80;101185.06;4951889;29;20066;-78
2022/07/12 11:34:03;;;;;;;6.03;1.00;;;;;;;30.90;35.27;101180.38;4948593;28;20050;-77
2022/07/12 11:36:53;;;;;;;1.02;0.82;;;;;;;30.94;35.84;101181.84;4947920;28;20051;-77
2022/07/12 11:39:40;;;;;;;6.85;1.30;;;;;;;30.96;35.63;101187.03;4949003;28;20058;-79
2022/07/12 11:42:25;;;;;;;22.30;1.75;;;;;;;31.15;34.72;101191.72;4945809;28;20583;-79
2022/07/12 11:45:14;;;;;;;2.53;1.27;;;;;;;31.30;33.91;101189.28;4942258;28;20322;-76
2022/07/12 11:48:01;;;;;;;2.13;0.93;;;;;;;31.30;33.99;101178.84;4953905;28;20046;-78
2022/07/12 11:50:47;;;;;;;2.45;0.70;;;;;;;31.25;34.16;101179.38;4954625;29;20054;-78
2022/07/12 11:53:33;;;;;;;4.72;0.93;;;;;;;31.30;35.77;101190.06;4954153;28;20050;-79
2022/07/12 11:56:17;;;;;;;1.52;0.68;;;;;;;31.17;35.31;101180.84;4953628;28;20054;-80
2022/07/12 11:59:01;;;;;;;3.50;0.70;;;;;;;31.26;34.50;101185.78;4957159;28;20066;-79
2022/07/12 12:02:07;;;;;;;1.08;0.73;;;;;;;31.30;34.12;101178.03;4954747;28;20042;-78
2022/07/12 12:04:54;;;;;;;3.38;0.90;;;;;;;31.22;34.40;101177.47;4962046;28;20046;-77
2022/07/12 12:07:39;;;;;;;5.28;0.70;;;;;;;31.14;34.71;101170.47;4962253;28;20054;-76
2022/07/12 12:10:23;;;;;;;1.83;0.80;;;;;;;30.99;34.89;101164.44;4972607;28;20101;-78
2022/07/12 12:13:16;;;;;;;3.45;0.93;;;;;;;31.07;34.80;101170.69;4973243;28;20424;-77
2022/07/12 12:16:03;;;;;;;2.00;0.85;;;;;;;31.17;35.35;101169.59;4974928;28;20062;-79
2022/07/12 12:18:47;;;;;;;2.00;0.85;;;;;;;31.01;35.71;101166.81;4973194;28;20058;-76
2022/07/12 12:21:34;;;;;;;2.90;1.02;;;;;;;31.23;34.38;101170.63;4964296;28;20535;-77
2022/07/12 12:24:19;;;;;;;4.70;0.93;;;;;;;31.45;34.67;101162.31;4962469;28;20448;-78
2022/07/12 12:27:04;;;;;;;2.20;0.85;;;;;;;31.60;33.96;101152.25;4962388;28;20042;-75
2022/07/12 12:29:49;;;;;;;2.17;0.93;;;;;;;31.68;34.15;101152.81;4964913;28;20075;-75
2022/07/12 12:32:52;;;;;;;8.48;0.80;;;;;;;31.72;33.23;101154.28;4972803;28;20054;-78
2022/07/12 12:35:38;;;;;;;5.95;0.70;;;;;;;31.60;34.52;101140.19;4972541;28;20062;-74
2022/07/12 12:38:28;;;;;;;1.95;0.75;;;;;;;31.48;34.69;101138.94;4965629;28;20054;-76
2022/07/12 12:41:15;;;;;;;1.88;0.82;;;;;;;31.66;34.54;101138.41;4963761;28;20512;-75
2022/07/12 12:44:04;;;;;;;2.88;0.80;;;;;;;31.52;35.13;101136.00;4953055;28;20050;-74
2022/07/12 12:50:01;;;;;;;5.45;0.85;;;;;;;31.39;34.10;101131.16;4962951;28;20043;-77
2022/07/12 12:52:48;;;;;;;3.80;0.65;;;;;;;31.54;33.76;101125.91;4934315;29;20432;-76
2022/07/12 12:55:32;;;;;;;3.78;1.60;;;;;;;31.56;33.63;101117.78;4936452;29;20066;-78
2022/07/12 12:58:18;;;;;;;2.38;0.95;;;;;;;31.28;34.47;101119.47;4934240;29;20051;-76
2022/07/12 13:01:04;;;;;;;3.85;1.17;;;;;;;31.19;34.72;101116.53;4965067;28;20419;-76
2022/07/12 13:03:49;;;;;;;9.38;1.58;;;;;;;31.40;34.10;101110.25;4942832;28;20050;-78
2022/07/12 13:06:34;;;;;;;3.72;0.93;;;;;;;31.42;33.88;101112.63;4942123;28;20039;-77